createdAt,value
2017-07-20T00:00:04.682Z,74.70
2017-07-20T00:02:38.622Z,76.70
2017-07-20T00:05:12.553Z,78.00
2017-07-20T00:07:47.610Z,78.40
2017-07-20T00:10:21.546Z,76.60
2017-07-20T00:12:55.432Z,79.90
2017-07-20T00:15:30.043Z,81.00
2017-07-20T00:18:05.732Z,80.80
2017-07-20T00:20:41.165Z,80.50
2017-07-20T00:23:16.301Z,79.50
2017-07-20T00:25:52.423Z,80.10
2017-07-20T00:28:28.075Z,75.40
2017-07-20T00:31:03.397Z,75.10
2017-07-20T00:33:37.308Z,73.60
2017-07-20T00:36:11.508Z,73.90
2017-07-20T00:38:46.340Z,76.20
2017-07-20T00:41:20.414Z,77.70
2017-07-20T00:43:55.242Z,76.20
2017-07-20T00:46:29.272Z,74.70
2017-07-20T00:49:03.245Z,75.70
2017-07-20T00:51:37.257Z,77.50
2017-07-20T00:54:11.357Z,77.80
2017-07-20T00:56:45.330Z,78.10
2017-07-20T00:59:20.736Z,76.20
2017-07-20T01:01:56.288Z,78.80
2017-07-20T01:04:30.223Z,78.60
2017-07-20T01:07:08.510Z,80.70
2017-07-20T01:09:44.280Z,80.50
2017-07-20T01:12:18.205Z,80.60
2017-07-20T01:14:52.874Z,79.00
2017-07-20T01:17:28.558Z,76.40
2017-07-20T01:20:03.200Z,77.50
2017-07-20T01:22:37.284Z,77.40
2017-07-20T01:25:12.854Z,80.40
2017-07-20T01:27:48.974Z,80.30
2017-07-20T01:30:24.014Z,80.60
2017-07-20T01:32:57.949Z,79.30
2017-07-20T01:35:32.695Z,78.30
2017-07-20T01:38:07.441Z,78.00
2017-07-20T01:40:41.362Z,78.80
2017-07-20T01:43:15.550Z,79.00
2017-07-20T01:45:49.439Z,80.40
2017-07-20T01:48:23.633Z,80.10
2017-07-20T01:50:58.618Z,81.00
2017-07-20T01:53:33.549Z,80.60
2017-07-20T01:56:08.275Z,80.60
2017-07-20T01:58:42.079Z,80.00
2017-07-20T02:01:16.829Z,79.80
2017-07-20T02:03:51.388Z,79.50
2017-07-20T02:06:25.300Z,81.50
2017-07-20T02:08:59.406Z,77.70
2017-07-20T02:11:34.250Z,77.70
2017-07-20T02:14:08.255Z,77.60
2017-07-20T02:16:42.209Z,76.70
2017-07-20T02:19:17.003Z,76.90
2017-07-20T02:21:51.676Z,75.90
2017-07-20T02:24:26.644Z,76.10
2017-07-20T02:27:01.124Z,76.90
2017-07-20T02:29:35.137Z,78.10
2017-07-20T02:32:09.952Z,77.40
2017-07-20T02:34:43.933Z,78.20
2017-07-20T02:37:18.742Z,77.80
2017-07-20T02:39:52.853Z,77.10
2017-07-20T02:42:26.784Z,79.20
2017-07-20T02:45:00.789Z,80.60
2017-07-20T02:47:36.262Z,80.30
2017-07-20T02:50:10.331Z,80.10
2017-07-20T02:52:44.374Z,81.60
2017-07-20T02:55:18.423Z,79.50
2017-07-20T02:57:52.299Z,79.80
2017-07-20T03:00:27.029Z,82.20
2017-07-20T03:03:01.967Z,82.00
2017-07-20T03:05:36.573Z,80.10
2017-07-20T03:08:11.117Z,79.50
2017-07-20T03:10:45.169Z,79.60
2017-07-20T03:13:20.060Z,78.30
2017-07-20T03:15:54.229Z,80.30
2017-07-20T03:18:28.079Z,82.10
2017-07-20T03:21:02.876Z,82.50
2017-07-20T03:23:41.787Z,81.60
2017-07-20T03:26:18.167Z,81.10
2017-07-20T03:28:52.575Z,81.70
2017-07-20T03:31:27.424Z,83.10
2017-07-20T03:34:01.211Z,84.00
2017-07-20T03:36:36.179Z,85.70
2017-07-20T03:39:11.579Z,85.40
2017-07-20T03:41:45.398Z,85.20
2017-07-20T03:44:20.510Z,85.50
2017-07-20T03:46:54.430Z,81.60
2017-07-20T03:49:28.966Z,82.80
2017-07-20T03:52:02.712Z,82.80
2017-07-20T03:54:36.611Z,81.20
2017-07-20T03:57:11.745Z,82.20
2017-07-20T03:59:45.784Z,81.30
2017-07-20T04:02:20.897Z,80.00
2017-07-20T04:04:54.981Z,80.30
2017-07-20T04:07:28.765Z,83.10
2017-07-20T04:10:02.630Z,82.50
2017-07-20T04:12:37.159Z,80.30
2017-07-20T04:15:12.094Z,82.90
2017-07-20T04:17:46.927Z,84.00
2017-07-20T04:20:20.808Z,83.50
2017-07-20T04:22:54.876Z,82.50
2017-07-20T04:25:29.991Z,81.00
2017-07-20T04:28:03.970Z,78.60
2017-07-20T04:30:38.873Z,79.60
2017-07-20T04:33:13.612Z,82.60
2017-07-20T04:35:48.077Z,82.40
2017-07-20T04:38:22.731Z,81.20
2017-07-20T04:40:56.584Z,81.40
2017-07-20T04:43:31.527Z,80.40
2017-07-20T04:46:06.174Z,82.80
2017-07-20T04:48:41.027Z,80.80
2017-07-20T04:51:14.828Z,78.30
2017-07-20T04:53:48.884Z,81.60
2017-07-20T04:56:24.245Z,84.20
2017-07-20T04:58:58.491Z,84.10
2017-07-20T05:01:32.299Z,87.20
2017-07-20T05:04:06.348Z,86.50
2017-07-20T05:06:40.137Z,85.60
2017-07-20T05:09:13.995Z,86.20
2017-07-20T05:11:47.750Z,86.10
2017-07-20T05:14:21.539Z,85.30
2017-07-20T05:16:57.081Z,83.80
2017-07-20T05:19:30.934Z,83.80
2017-07-20T05:22:05.940Z,82.00
2017-07-20T05:27:37.886Z,81.20
2017-07-20T05:30:11.826Z,80.80
2017-07-20T05:32:45.716Z,80.60
2017-07-20T05:35:19.725Z,79.80
2017-07-20T05:37:53.525Z,81.40
2017-07-20T05:40:27.637Z,81.20
2017-07-20T05:43:01.857Z,82.20
2017-07-20T05:45:35.810Z,81.80
2017-07-20T05:48:09.941Z,79.90
2017-07-20T05:53:24.634Z,82.60
2017-07-20T05:55:58.731Z,81.80
2017-07-20T05:58:32.537Z,78.90
2017-07-20T06:01:06.562Z,81.40
2017-07-20T06:03:40.879Z,83.50
2017-07-20T06:06:14.746Z,83.80
2017-07-20T06:08:48.466Z,84.30
2017-07-20T06:11:22.474Z,83.30
2017-07-20T06:13:57.210Z,84.20
2017-07-20T06:16:31.280Z,83.90
2017-07-20T06:19:05.076Z,82.90
2017-07-20T06:21:39.020Z,83.80
2017-07-20T06:24:15.094Z,83.90
2017-07-20T06:26:49.830Z,84.30
2017-07-20T06:29:24.691Z,82.60
2017-07-20T06:31:58.667Z,82.40
2017-07-20T06:34:32.539Z,81.60
2017-07-20T06:37:07.010Z,81.70
2017-07-20T06:39:41.807Z,79.90
2017-07-20T06:42:17.590Z,80.30
2017-07-20T06:44:52.966Z,79.40
2017-07-20T06:47:26.963Z,79.30
2017-07-20T06:50:01.813Z,78.90
2017-07-20T06:52:35.666Z,76.80
2017-07-20T06:55:09.746Z,78.50
2017-07-20T06:57:44.620Z,78.90
2017-07-20T07:00:18.836Z,75.60
2017-07-20T07:02:54.900Z,75.90
2017-07-20T07:08:10.157Z,75.40
2017-07-20T07:10:44.873Z,75.60
2017-07-20T07:13:19.660Z,72.00
2017-07-20T07:15:53.736Z,71.60
2017-07-20T07:18:27.906Z,73.60
2017-07-20T07:21:01.905Z,70.10
2017-07-20T07:23:35.803Z,69.10
2017-07-20T07:26:10.419Z,70.30
2017-07-20T07:28:44.162Z,70.30
2017-07-20T07:31:18.188Z,70.60
2017-07-20T07:33:52.121Z,70.10
2017-07-20T07:36:27.742Z,71.40
2017-07-20T07:39:01.734Z,71.40
2017-07-20T07:41:36.713Z,65.00
2017-07-20T07:44:10.938Z,64.00
2017-07-20T07:46:44.910Z,63.30
2017-07-20T07:49:19.453Z,59.00
2017-07-20T07:51:53.456Z,58.90
2017-07-20T07:54:27.429Z,59.80
2017-07-20T07:57:01.320Z,59.20
2017-07-20T07:59:35.193Z,57.90
2017-07-20T08:02:09.292Z,57.40
2017-07-20T08:04:42.974Z,57.60
2017-07-20T08:07:17.584Z,58.00
2017-07-20T08:09:53.048Z,58.00
2017-07-20T08:12:27.323Z,58.80
2017-07-20T08:15:01.447Z,59.00
2017-07-20T08:17:36.522Z,58.10
2017-07-20T08:20:10.542Z,58.00
2017-07-20T08:25:24.399Z,57.20
2017-07-20T08:27:58.418Z,55.20
2017-07-20T08:30:32.414Z,56.70
2017-07-20T08:33:06.352Z,56.70
2017-07-20T08:35:40.436Z,55.70
2017-07-20T08:38:14.356Z,54.70
2017-07-20T08:40:48.423Z,52.90
2017-07-20T08:43:23.131Z,53.20
2017-07-20T08:45:57.124Z,53.10
2017-07-20T08:48:31.392Z,52.50
2017-07-20T08:51:05.313Z,53.30
2017-07-20T08:53:39.152Z,51.90
2017-07-20T08:56:13.474Z,52.30
2017-07-20T08:58:47.252Z,51.80
2017-07-20T09:01:21.177Z,52.30
2017-07-20T09:03:55.946Z,52.90
2017-07-20T09:06:29.758Z,52.80
2017-07-20T09:09:03.878Z,52.20
2017-07-20T09:11:40.181Z,53.70
2017-07-20T09:14:14.283Z,53.00
2017-07-20T09:16:48.440Z,52.70
2017-07-20T09:19:22.681Z,53.70
2017-07-20T09:21:56.705Z,53.70
2017-07-20T09:24:31.418Z,53.90
2017-07-20T09:27:05.421Z,53.60
2017-07-20T09:29:40.336Z,52.20
2017-07-20T09:32:16.210Z,51.60
2017-07-20T09:34:50.507Z,51.60
2017-07-20T09:37:24.856Z,51.20
2017-07-20T09:39:59.440Z,50.90
2017-07-20T09:42:33.368Z,50.70
2017-07-20T09:45:19.278Z,51.70
2017-07-20T09:47:54.258Z,52.60
2017-07-20T09:50:29.180Z,52.80
2017-07-20T09:53:04.522Z,52.80
2017-07-20T09:55:38.698Z,52.60
2017-07-20T09:58:15.689Z,54.00
2017-07-20T10:00:50.784Z,54.00
2017-07-20T10:03:24.786Z,52.20
2017-07-20T10:05:58.746Z,52.20
2017-07-20T10:08:33.567Z,52.10
2017-07-20T10:11:10.115Z,53.90
2017-07-20T10:13:43.886Z,52.00
2017-07-20T10:16:18.005Z,51.70
2017-07-20T10:18:52.235Z,51.00
2017-07-20T10:21:28.593Z,52.90
2017-07-20T10:24:04.101Z,52.30
2017-07-20T10:26:39.904Z,51.10
2017-07-20T10:29:15.067Z,50.40
2017-07-20T10:31:50.016Z,47.90
2017-07-20T10:34:25.424Z,47.70
2017-07-20T10:36:59.953Z,45.40
2017-07-20T10:39:33.990Z,46.60
2017-07-20T10:42:07.935Z,45.60
2017-07-20T10:44:42.498Z,46.00
2017-07-20T10:47:16.932Z,46.60
2017-07-20T10:49:51.838Z,46.80
2017-07-20T10:52:26.600Z,46.60
2017-07-20T10:55:00.839Z,46.50
2017-07-20T10:57:36.679Z,47.40
2017-07-20T11:00:13.529Z,46.80
2017-07-20T11:02:48.821Z,47.00
2017-07-20T11:05:23.414Z,47.60
2017-07-20T11:07:57.384Z,48.60
2017-07-20T11:10:31.343Z,46.70
2017-07-20T11:13:06.629Z,48.30
2017-07-20T11:15:44.082Z,48.00
2017-07-20T11:18:18.114Z,49.00
2017-07-20T11:20:52.407Z,48.70
2017-07-20T11:23:29.641Z,49.30
2017-07-20T11:26:03.649Z,49.30
2017-07-20T11:28:38.663Z,48.80
2017-07-20T11:31:12.670Z,49.10
2017-07-20T11:33:48.642Z,50.00
2017-07-20T11:36:24.451Z,49.90
2017-07-20T11:38:59.817Z,50.60
2017-07-20T11:41:34.182Z,52.00
2017-07-20T11:44:09.375Z,49.90
2017-07-20T11:46:43.563Z,49.90
2017-07-20T11:49:17.713Z,50.70
2017-07-20T11:51:53.241Z,50.30
2017-07-20T11:54:27.319Z,50.30
2017-07-20T11:57:01.229Z,50.40
2017-07-20T11:59:35.120Z,50.40
2017-07-20T12:02:09.009Z,50.60
2017-07-20T12:04:43.699Z,50.90
2017-07-20T12:07:17.578Z,50.90
2017-07-20T12:09:51.429Z,51.10
2017-07-20T12:12:25.916Z,52.10
2017-07-20T12:14:59.837Z,53.50
2017-07-20T12:17:34.540Z,63.30
2017-07-20T12:20:08.539Z,62.80
2017-07-20T12:22:42.476Z,70.80
2017-07-20T12:25:17.197Z,73.80
2017-07-20T12:27:51.080Z,78.60
2017-07-20T12:30:24.770Z,81.60
2017-07-20T12:32:59.749Z,81.00
2017-07-20T12:35:33.656Z,80.90
2017-07-20T12:38:07.411Z,82.60
2017-07-20T12:40:41.424Z,82.60
2017-07-20T12:43:15.275Z,83.60
2017-07-20T12:45:49.228Z,83.20
2017-07-20T12:48:23.477Z,84.30
2017-07-20T12:50:57.557Z,85.30
2017-07-20T12:53:31.682Z,85.60
2017-07-20T12:56:05.661Z,85.60
2017-07-20T12:58:39.601Z,84.40
2017-07-20T13:01:13.424Z,84.50
2017-07-20T13:03:47.084Z,85.00
2017-07-20T13:06:21.080Z,87.90
2017-07-20T13:08:54.839Z,89.10
2017-07-20T13:11:28.788Z,89.10
2017-07-20T13:14:02.910Z,90.00
2017-07-20T13:16:36.714Z,90.00
2017-07-20T13:19:10.637Z,89.30
2017-07-20T13:21:45.283Z,90.10
2017-07-20T13:24:18.999Z,90.10
2017-07-20T13:26:52.901Z,90.50
2017-07-20T13:29:27.488Z,90.70
2017-07-20T13:32:01.423Z,90.60
2017-07-20T13:34:36.863Z,90.50
2017-07-20T13:37:10.658Z,90.30
2017-07-20T13:39:44.770Z,90.40
2017-07-20T13:42:18.593Z,90.20
2017-07-20T13:44:52.640Z,90.30
2017-07-20T13:47:26.455Z,90.50
2017-07-20T13:50:00.182Z,90.10
2017-07-20T13:52:34.875Z,89.50
2017-07-20T13:55:08.752Z,89.40
2017-07-20T13:57:44.009Z,90.10
2017-07-20T14:00:18.493Z,88.30
2017-07-20T14:02:53.238Z,85.80
2017-07-20T14:05:27.441Z,85.80
2017-07-20T14:08:01.354Z,84.10
2017-07-20T14:10:35.190Z,84.60
2017-07-20T14:13:09.075Z,83.30
2017-07-20T14:15:43.802Z,85.40
2017-07-20T14:18:17.501Z,85.20
2017-07-20T14:20:52.339Z,84.40
2017-07-20T14:23:26.160Z,84.20
2017-07-20T14:26:00.013Z,83.80
2017-07-20T14:28:33.724Z,82.60
2017-07-20T14:31:07.584Z,85.30
2017-07-20T14:33:41.510Z,88.10
2017-07-20T14:36:15.779Z,87.20
2017-07-20T14:38:49.700Z,85.90
2017-07-20T14:41:24.047Z,84.80
2017-07-20T14:43:57.873Z,83.80
2017-07-20T14:46:31.763Z,85.80
2017-07-20T14:49:05.829Z,86.40
2017-07-20T14:51:39.663Z,85.50
2017-07-20T14:54:13.627Z,87.80
2017-07-20T14:56:47.575Z,86.90
2017-07-20T14:59:23.483Z,84.50
2017-07-20T15:01:57.257Z,84.40
2017-07-20T15:04:31.849Z,87.10
2017-07-20T15:07:05.906Z,87.10
2017-07-20T15:09:39.892Z,87.10
2017-07-20T15:12:14.425Z,84.50
2017-07-20T15:14:49.292Z,84.10
2017-07-20T15:17:23.197Z,84.00
2017-07-20T15:19:57.102Z,87.30
2017-07-20T15:22:31.748Z,88.80
2017-07-20T15:25:06.326Z,88.60
2017-07-20T15:27:40.018Z,88.50
2017-07-20T15:33:11.438Z,88.00
2017-07-20T15:35:45.455Z,88.20
2017-07-20T15:38:20.193Z,86.30
2017-07-20T15:40:53.956Z,86.30
2017-07-20T15:43:28.742Z,85.90
2017-07-20T15:46:03.980Z,85.80
2017-07-20T15:48:38.079Z,84.80
2017-07-20T15:51:12.795Z,84.70
2017-07-20T15:53:46.914Z,84.50
2017-07-20T15:56:21.909Z,85.50
2017-07-20T15:58:55.663Z,85.40
2017-07-20T16:01:30.668Z,84.20
2017-07-20T16:04:04.616Z,84.10
2017-07-20T16:06:38.493Z,84.50
2017-07-20T16:09:12.629Z,85.40
2017-07-20T16:11:47.339Z,86.20
2017-07-20T16:14:21.495Z,86.60
2017-07-20T16:16:55.409Z,86.60
2017-07-20T16:19:29.790Z,85.90
2017-07-20T16:22:03.574Z,87.50
2017-07-20T16:24:37.433Z,87.10
2017-07-20T16:27:11.965Z,86.00
2017-07-20T16:29:47.518Z,83.70
2017-07-20T16:32:24.928Z,83.60
2017-07-20T16:35:03.097Z,85.60
2017-07-20T16:37:46.031Z,83.90
2017-07-20T16:40:26.203Z,85.50
2017-07-20T16:43:04.187Z,85.40
2017-07-20T16:45:42.144Z,83.90
2017-07-20T16:48:16.598Z,83.80
2017-07-20T16:50:57.370Z,85.60
2017-07-20T16:53:32.957Z,84.70
2017-07-20T16:56:10.575Z,85.20
2017-07-20T16:58:47.967Z,85.20
2017-07-20T17:01:21.744Z,83.30
2017-07-20T17:03:55.362Z,84.50
2017-07-20T17:06:29.830Z,83.50
2017-07-20T17:09:05.201Z,82.80
2017-07-20T17:11:38.861Z,82.70
2017-07-20T17:14:12.483Z,83.40
2017-07-20T17:16:46.052Z,81.70
2017-07-20T17:19:20.369Z,82.10
2017-07-20T17:21:54.692Z,82.00
2017-07-20T17:24:28.406Z,82.00
2017-07-20T17:27:01.965Z,80.60
2017-07-20T17:29:36.309Z,81.20
2017-07-20T17:32:10.661Z,78.70
2017-07-20T17:34:45.267Z,79.70
2017-07-20T17:37:19.145Z,79.60
2017-07-20T17:39:52.782Z,79.30
2017-07-20T17:42:26.460Z,79.30
2017-07-20T17:45:00.065Z,81.40
2017-07-20T17:47:34.753Z,80.30
2017-07-20T17:50:08.480Z,80.50
2017-07-20T17:52:42.001Z,79.80
2017-07-20T17:55:15.712Z,81.70
2017-07-20T17:57:49.297Z,83.00
2017-07-20T18:00:22.900Z,82.80
2017-07-20T18:02:56.504Z,83.10
2017-07-20T18:05:30.148Z,82.20
2017-07-20T18:08:03.801Z,82.70
2017-07-20T18:10:37.388Z,83.70
2017-07-20T18:13:10.998Z,83.10
2017-07-20T18:15:44.501Z,82.70
2017-07-20T18:18:18.195Z,83.80
2017-07-20T18:20:53.669Z,83.30
2017-07-20T18:23:27.552Z,83.20
2017-07-20T18:26:01.859Z,82.60
2017-07-20T18:28:35.581Z,82.60
2017-07-20T18:31:09.186Z,83.30
2017-07-20T18:33:44.217Z,82.80
2017-07-20T18:36:17.894Z,82.70
2017-07-20T18:38:51.716Z,83.40
2017-07-20T18:41:26.312Z,86.50
2017-07-20T18:44:00.145Z,86.30
2017-07-20T18:46:33.748Z,85.40
2017-07-20T18:49:07.340Z,85.80
2017-07-20T18:51:41.056Z,84.70
2017-07-20T18:54:18.796Z,83.80
2017-07-20T18:56:52.495Z,83.40
2017-07-20T18:59:27.134Z,83.30
2017-07-20T19:02:06.141Z,83.30
2017-07-20T19:04:39.962Z,82.70
2017-07-20T19:07:14.500Z,82.20
2017-07-20T19:09:49.044Z,82.60
2017-07-20T19:12:22.852Z,82.60
2017-07-20T19:14:56.679Z,82.20
2017-07-20T19:17:30.568Z,81.80
2017-07-20T19:20:04.665Z,81.60
2017-07-20T19:22:38.985Z,79.80
2017-07-20T19:25:12.830Z,80.40
2017-07-20T19:27:47.719Z,81.10
2017-07-20T19:30:21.473Z,81.20
2017-07-20T19:32:56.910Z,82.00
2017-07-20T19:35:30.896Z,81.80
2017-07-20T19:38:05.515Z,82.00
2017-07-20T19:40:39.484Z,82.00
2017-07-20T19:43:13.275Z,82.50
2017-07-20T19:45:47.097Z,83.00
2017-07-20T19:48:21.346Z,83.10
2017-07-20T19:50:56.056Z,83.00
2017-07-20T19:53:33.988Z,82.80
2017-07-20T19:56:08.146Z,82.30
2017-07-20T19:58:41.877Z,82.30
2017-07-20T20:01:17.551Z,82.40
2017-07-20T20:03:51.970Z,83.70
2017-07-20T20:06:25.751Z,85.00
2017-07-20T20:09:00.576Z,85.00
2017-07-20T20:11:35.594Z,85.00
2017-07-20T20:14:09.824Z,84.60
2017-07-20T20:16:44.623Z,82.40
2017-07-20T20:19:20.963Z,82.40
2017-07-20T20:22:01.224Z,82.60
2017-07-20T20:24:35.787Z,82.40
2017-07-20T20:27:09.600Z,82.20
2017-07-20T20:32:41.248Z,82.00
2017-07-20T20:35:15.249Z,82.20
2017-07-20T20:40:30.758Z,81.60
2017-07-20T20:43:07.380Z,82.40
2017-07-20T20:45:41.126Z,83.20
2017-07-20T20:48:17.897Z,84.60
2017-07-20T20:50:57.668Z,84.00
2017-07-20T20:53:33.438Z,82.80
2017-07-20T20:56:13.581Z,85.00
2017-07-20T20:58:48.377Z,86.00
2017-07-20T21:01:22.122Z,84.30
2017-07-20T21:03:55.911Z,82.20
2017-07-20T21:06:29.791Z,82.00
2017-07-20T21:09:03.973Z,81.90
2017-07-20T21:11:37.714Z,81.90
2017-07-20T21:14:11.459Z,82.40
2017-07-20T21:16:45.177Z,82.20
2017-07-20T21:19:18.853Z,82.40
2017-07-20T21:21:52.904Z,82.70
2017-07-20T21:24:26.963Z,82.20
2017-07-20T21:27:01.109Z,82.20
2017-07-20T21:29:35.170Z,81.70
2017-07-20T21:32:09.051Z,81.60
2017-07-20T21:34:43.713Z,81.80
2017-07-20T21:37:18.602Z,82.10
2017-07-20T21:39:52.641Z,82.00
2017-07-20T21:42:27.229Z,82.00
2017-07-20T21:45:00.962Z,81.90
2017-07-20T21:47:34.829Z,81.60
2017-07-20T21:50:08.943Z,82.00
2017-07-20T21:52:45.581Z,83.00
2017-07-20T21:55:19.613Z,82.30
2017-07-20T21:57:54.629Z,81.90
2017-07-20T22:00:30.381Z,81.60
2017-07-20T22:03:04.237Z,81.80
2017-07-20T22:05:37.991Z,83.60
2017-07-20T22:10:50.405Z,81.20
2017-07-20T22:13:25.814Z,81.10
2017-07-20T22:15:59.751Z,81.50
2017-07-20T22:18:34.415Z,81.40
2017-07-20T22:21:09.353Z,81.20
2017-07-20T22:23:43.319Z,81.80
2017-07-20T22:26:17.179Z,82.20
2017-07-20T22:28:51.283Z,84.20
2017-07-20T22:31:24.852Z,85.00
2017-07-20T22:33:59.539Z,83.70
2017-07-20T22:36:33.270Z,84.20
2017-07-20T22:39:08.247Z,85.70
2017-07-20T22:44:46.751Z,85.30
2017-07-20T22:47:20.525Z,83.70
2017-07-20T22:49:55.086Z,83.20
2017-07-20T22:52:32.570Z,83.20
2017-07-20T22:55:06.358Z,82.50
2017-07-20T22:57:43.097Z,82.50
2017-07-20T23:00:16.899Z,82.00
2017-07-20T23:02:50.672Z,82.00
2017-07-20T23:05:24.927Z,82.40
2017-07-20T23:07:58.957Z,82.50
2017-07-20T23:10:33.628Z,80.90
2017-07-20T23:13:08.382Z,82.20
2017-07-20T23:15:42.210Z,81.40
2017-07-20T23:18:16.869Z,82.70
2017-07-20T23:20:50.604Z,81.90
2017-07-20T23:23:24.553Z,81.00
2017-07-20T23:25:58.380Z,81.00
2017-07-20T23:28:32.138Z,81.90
2017-07-20T23:31:06.179Z,81.60
2017-07-20T23:33:40.368Z,80.90
2017-07-20T23:36:14.224Z,80.90
2017-07-20T23:38:48.919Z,80.50
2017-07-20T23:41:22.945Z,80.40
2017-07-20T23:43:56.788Z,80.90
2017-07-20T23:46:30.781Z,81.10
2017-07-20T23:49:04.875Z,80.80
2017-07-20T23:51:39.447Z,81.70
2017-07-20T23:54:14.226Z,80.80
2017-07-20T23:56:48.294Z,80.80
2017-07-20T23:59:22.782Z,81.20
